Accueil
METAR-TAF:

METAR-TAF

Aéroports :

Lleida, Espagne

Lleida-Alguaire

latitude: 41-43-40N, longitude: 000-32-09E, altitude: 350 m

Observation

Le bulletin a été fait il y a 7 heures et 23 minutes, à 15:30 UTC
Vent 4 kt de direction variable
Température 23°C
Humidité 47%
Pression 1019 hPa
Visibilité 10 km ou plus
Quelques nuages à une hauteur de 4000 ft

METAR: LEDA 211530Z VRB04KT 9999 FEW040 23/11 Q1019

Heure: 00:53 (22:53 UTC)

Prévision

Le bulletin a été fait il y a 8 heures et 53 minutes, à 14:00 UTC
Prévision valable du 21 à 15 UTC au 22 à 15 UTC
Vent 10 kt de sud/sud-est
Visibilité 10 km ou plus
Quelques nuages à une hauteur de 4000 ft
Evoluant progressivement
du 21 à 20 UTC au 21 à 22 UTC
Vent 10 kt de sud/sud-est
Evoluant progressivement
du 22 à 10 UTC au 22 à 12 UTC
Vent 10 kt de sud

TAF: LEDA 211400Z 2115/2215 16010KT 9999 FEW040 TX27/2213Z TN10/2206Z BECMG 2120/2122 16010KT BECMG 2210/2212 17010KT

Observations et prévisions météorologiques de plus de 4000 aéroports (messages METAR et TAF).

Les stations disponibles sont représentées par des disques jaunes et rouges sur la carte.

Passer la souris dessus pour voir le nom de la station.

Cliquer dessus pour voir les observations et prévisions météorologiques.

Pour changer de carte: cliquez sur les boutons verts avec une croix noire pour zoomer, sur le bouton vert avec un tiret pour effectuer un zoom arrière, ou sur les flèches vertes pour les cartes adjacentes.


METAR-TAF: